Time;durP1;ratioP1;P1;durP2;ratioP2;P2;SDS_P1;SDS_P2;PMS_P1;PMS_P2;Temp;Humidity;BMP_temperature;BMP_pressure;BME280_temperature;BME280_humidity;BME280_pressure;Samples;Min_cycle;Max_cycle;Signal;HPM_P1;HPM_P2
2021/12/23 00:01:00;;;;;;;10.53;9.57;;;;;;;;;;4976220;28;20221;-87
2021/12/23 00:03:29;;;;;;;15.83;13.47;;;;;;;;;;4984191;28;20235;-87
2021/12/23 00:05:57;;;;;;;15.50;11.60;;;;;;;;;;4981300;28;20266;-85
2021/12/23 00:08:26;;;;;;;15.07;10.70;;;;;;;;;;4992114;28;20284;-88
2021/12/23 00:10:55;;;;;;;14.97;12.87;;;;;;;;;;4998290;28;20203;-88
2021/12/23 00:13:24;;;;;;;10.07;8.97;;;;;;;;;;4997423;28;20210;-88
2021/12/23 00:16:04;;;;;;;15.63;11.80;;;;;;;;;;4996302;28;20230;-88
2021/12/23 00:18:46;;;;;;;10.47;7.83;;;;;;;;;;4998099;28;20242;-85
2021/12/23 00:24:02;;;;;;;16.50;13.60;;;;;;;;;;4991089;28;20215;-88
2021/12/23 00:26:32;;;;;;;18.20;15.10;;;;;;;;;;4996956;28;20221;-85
2021/12/23 00:29:00;;;;;;;12.47;10.60;;;;;;;;;;4998115;28;20309;-86
2021/12/23 00:31:28;;;;;;;18.57;16.67;;;;;;;;;;4997878;28;20201;-86
2021/12/23 00:33:57;;;;;;;20.60;18.50;;;;;;;;;;4997596;28;20215;-86
2021/12/23 00:36:26;;;;;;;19.50;16.20;;;;;;;;;;4998042;28;20202;-86
2021/12/23 00:38:56;;;;;;;14.87;13.43;;;;;;;;;;4997973;28;20339;-87
2021/12/23 00:41:30;;;;;;;19.40;17.33;;;;;;;;;;4998009;28;20226;-85
2021/12/23 00:44:00;;;;;;;20.83;16.30;;;;;;;;;;4997510;28;20212;-87
2021/12/23 00:46:28;;;;;;;2.60;2.50;;;;;;;;;;4997296;28;20261;-86
2021/12/23 00:48:57;;;;;;;17.17;14.27;;;;;;;;;;4997530;28;20234;-87
2021/12/23 00:51:25;;;;;;;20.70;17.30;;;;;;;;;;4996870;28;20264;-86
2021/12/23 00:54:02;;;;;;;19.40;16.13;;;;;;;;;;4997057;28;20216;-86
2021/12/23 00:56:31;;;;;;;16.63;13.13;;;;;;;;;;4997388;28;20210;-86
2021/12/23 00:59:01;;;;;;;15.43;12.37;;;;;;;;;;4997233;28;20209;-86
2021/12/23 01:01:29;;;;;;;14.30;12.33;;;;;;;;;;4997528;28;20354;-86
2021/12/23 01:03:58;;;;;;;19.73;15.93;;;;;;;;;;4996942;28;20231;-86
2021/12/23 01:06:29;;;;;;;11.60;9.43;;;;;;;;;;4996353;28;20226;-86
2021/12/23 01:08:58;;;;;;;20.67;16.20;;;;;;;;;;5012040;28;20280;-86
2021/12/23 01:11:27;;;;;;;17.57;13.73;;;;;;;;;;4997367;28;20228;-87
2021/12/23 01:14:14;;;;;;;20.43;15.50;;;;;;;;;;5006726;28;20296;-86
2021/12/23 01:17:11;;;;;;;19.97;14.27;;;;;;;;;;4998763;28;20237;-87
2021/12/23 01:19:40;;;;;;;22.00;19.67;;;;;;;;;;4997963;28;20791;-87
2021/12/23 01:22:09;;;;;;;21.57;18.50;;;;;;;;;;4996851;28;20311;-87
2021/12/23 01:24:37;;;;;;;17.47;15.53;;;;;;;;;;5000628;28;20235;-87
2021/12/23 01:27:09;;;;;;;21.13;18.57;;;;;;;;;;5003170;28;20279;-86
2021/12/23 01:29:37;;;;;;;21.37;18.47;;;;;;;;;;4997182;28;20186;-86
2021/12/23 01:32:08;;;;;;;13.30;11.77;;;;;;;;;;4997106;28;20202;-87
2021/12/23 01:34:37;;;;;;;21.60;19.23;;;;;;;;;;5002002;28;20260;-86
2021/12/23 01:37:06;;;;;;;24.27;16.67;;;;;;;;;;5007370;28;20225;-86
2021/12/23 01:39:34;;;;;;;19.13;13.30;;;;;;;;;;4997276;28;20311;-86
2021/12/23 01:42:03;;;;;;;25.17;19.37;;;;;;;;;;5001879;28;20270;-87
2021/12/23 01:44:32;;;;;;;17.97;14.83;;;;;;;;;;5008395;28;20216;-86
2021/12/23 01:47:00;;;;;;;6.37;5.87;;;;;;;;;;4996875;28;20209;-86
2021/12/23 01:49:31;;;;;;;15.47;11.47;;;;;;;;;;4996465;28;20288;-86
2021/12/23 01:51:59;;;;;;;18.73;16.80;;;;;;;;;;4996529;28;20264;-86
2021/12/23 01:54:28;;;;;;;20.03;15.40;;;;;;;;;;4996517;28;20212;-87
2021/12/23 01:56:57;;;;;;;22.77;19.23;;;;;;;;;;4996788;28;20349;-86
2021/12/23 01:59:26;;;;;;;17.77;15.23;;;;;;;;;;4996573;28;20232;-86
2021/12/23 02:01:54;;;;;;;19.70;17.23;;;;;;;;;;4996331;28;20229;-87
2021/12/23 02:04:23;;;;;;;21.87;19.13;;;;;;;;;;4996322;28;20240;-86
2021/12/23 02:06:52;;;;;;;23.23;20.73;;;;;;;;;;4996447;28;20295;-86
2021/12/23 02:09:21;;;;;;;21.90;19.63;;;;;;;;;;4996411;28;20279;-86
2021/12/23 02:11:49;;;;;;;19.43;17.10;;;;;;;;;;4996218;28;20234;-87
2021/12/23 02:14:18;;;;;;;21.73;19.43;;;;;;;;;;4996600;28;20271;-87
2021/12/23 02:16:47;;;;;;;23.23;19.60;;;;;;;;;;4996123;28;20213;-86
2021/12/23 02:19:17;;;;;;;14.90;12.77;;;;;;;;;;4995882;28;20205;-86
2021/12/23 02:21:48;;;;;;;18.70;15.80;;;;;;;;;;4996181;28;20212;-86
2021/12/23 02:24:17;;;;;;;25.10;17.37;;;;;;;;;;4995893;28;20245;-86
2021/12/23 02:26:45;;;;;;;23.63;16.20;;;;;;;;;;4995735;28;20237;-87
2021/12/23 02:29:14;;;;;;;22.43;17.27;;;;;;;;;;4995884;28;20236;-86
2021/12/23 02:31:42;;;;;;;24.90;19.50;;;;;;;;;;4995658;28;20252;-86
2021/12/23 02:34:10;;;;;;;19.93;16.37;;;;;;;;;;4987698;28;20245;-86
2021/12/23 02:36:39;;;;;;;22.97;17.67;;;;;;;;;;4986844;28;20209;-87
2021/12/23 02:39:09;;;;;;;20.90;17.93;;;;;;;;;;4985460;28;20229;-87
2021/12/23 02:41:44;;;;;;;19.40;17.23;;;;;;;;;;4983219;28;20230;-87
2021/12/23 02:44:13;;;;;;;23.10;20.03;;;;;;;;;;4995558;28;20296;-87
2021/12/23 02:46:41;;;;;;;23.43;19.33;;;;;;;;;;4982317;28;20273;-86
2021/12/23 02:49:10;;;;;;;13.97;11.93;;;;;;;;;;4978821;28;20207;-87
2021/12/23 02:51:41;;;;;;;19.13;15.67;;;;;;;;;;4988386;28;20216;-87
2021/12/23 02:54:11;;;;;;;21.03;18.73;;;;;;;;;;4981157;28;20293;-87
2021/12/23 02:56:39;;;;;;;24.53;20.67;;;;;;;;;;4976285;28;20239;-87
2021/12/23 02:59:08;;;;;;;23.73;20.60;;;;;;;;;;4975902;28;20208;-87
2021/12/23 03:01:37;;;;;;;25.00;22.37;;;;;;;;;;4985831;28;20232;-86
2021/12/23 03:04:06;;;;;;;24.30;19.60;;;;;;;;;;4994874;28;20247;-87
2021/12/23 03:06:35;;;;;;;21.03;15.97;;;;;;;;;;4994860;28;20209;-87
2021/12/23 03:09:05;;;;;;;22.17;19.77;;;;;;;;;;4993477;28;20320;-87
2021/12/23 03:11:35;;;;;;;17.30;13.37;;;;;;;;;;4975728;28;20209;-87
2021/12/23 03:14:04;;;;;;;3.27;3.07;;;;;;;;;;4976284;28;20290;-87
2021/12/23 03:16:35;;;;;;;15.67;13.10;;;;;;;;;;4975265;28;20214;-87
2021/12/23 03:19:04;;;;;;;20.43;16.40;;;;;;;;;;4975542;28;20211;-87
2021/12/23 03:21:33;;;;;;;23.20;20.07;;;;;;;;;;4975445;28;20210;-87
2021/12/23 03:24:01;;;;;;;11.70;10.53;;;;;;;;;;4975419;28;20323;-87
2021/12/23 03:26:29;;;;;;;22.70;18.33;;;;;;;;;;4976762;28;20210;-87
2021/12/23 03:28:59;;;;;;;22.37;18.47;;;;;;;;;;4976145;28;20266;-87
2021/12/23 03:31:28;;;;;;;20.30;15.57;;;;;;;;;;4977583;28;20213;-87
2021/12/23 03:33:56;;;;;;;23.73;21.07;;;;;;;;;;4982623;28;20237;-87
2021/12/23 03:36:25;;;;;;;18.40;13.23;;;;;;;;;;4982676;28;20240;-87
2021/12/23 03:38:53;;;;;;;16.67;10.87;;;;;;;;;;4984182;28;20218;-87
2021/12/23 03:41:21;;;;;;;17.57;15.30;;;;;;;;;;4977020;28;20213;-87
2021/12/23 03:43:50;;;;;;;20.33;15.87;;;;;;;;;;4976539;28;20221;-87
2021/12/23 03:46:20;;;;;;;23.90;20.73;;;;;;;;;;4979861;28;20210;-87
2021/12/23 03:48:48;;;;;;;23.50;18.80;;;;;;;;;;4980945;28;20202;-87
2021/12/23 03:51:17;;;;;;;29.47;21.60;;;;;;;;;;4987685;28;20233;-87
2021/12/23 03:53:45;;;;;;;30.70;22.60;;;;;;;;;;4979074;28;20288;-87
2021/12/23 03:56:15;;;;;;;11.77;8.00;;;;;;;;;;4979336;28;20264;-86
2021/12/23 03:58:43;;;;;;;33.57;23.60;;;;;;;;;;4988035;28;20221;-88
2021/12/23 04:01:14;;;;;;;36.10;24.60;;;;;;;;;;4979029;28;20221;-87
2021/12/23 04:03:44;;;;;;;28.17;19.80;;;;;;;;;;4979760;28;20230;-87
2021/12/23 04:06:13;;;;;;;20.27;14.17;;;;;;;;;;4979220;28;20193;-87
2021/12/23 04:08:41;;;;;;;42.37;29.57;;;;;;;;;;4999333;28;20289;-88
2021/12/23 04:11:10;;;;;;;42.77;27.00;;;;;;;;;;5008080;28;20217;-87
2021/12/23 04:13:38;;;;;;;31.57;23.77;;;;;;;;;;4998235;28;20214;-87
2021/12/23 04:16:07;;;;;;;48.83;36.47;;;;;;;;;;4998359;28;20308;-87
2021/12/23 04:18:35;;;;;;;48.27;34.73;;;;;;;;;;4998482;28;20210;-87
2021/12/23 04:21:05;;;;;;;47.73;35.20;;;;;;;;;;4996816;28;20209;-87
2021/12/23 04:23:34;;;;;;;52.67;40.40;;;;;;;;;;4998508;28;20320;-87
2021/12/23 04:26:03;;;;;;;54.23;38.57;;;;;;;;;;4998352;28;20206;-87
2021/12/23 04:28:31;;;;;;;48.67;35.67;;;;;;;;;;4997871;28;20217;-87
2021/12/23 04:31:00;;;;;;;57.57;39.83;;;;;;;;;;4998111;28;20269;-88
2021/12/23 04:33:28;;;;;;;55.17;39.37;;;;;;;;;;4998118;28;20612;-87
2021/12/23 04:35:57;;;;;;;55.63;37.80;;;;;;;;;;4998302;28;20202;-87
2021/12/23 04:38:27;;;;;;;33.67;24.47;;;;;;;;;;4997736;28;20209;-87
2021/12/23 04:40:55;;;;;;;57.03;37.67;;;;;;;;;;4997992;28;20221;-87
2021/12/23 04:43:23;;;;;;;53.07;36.33;;;;;;;;;;4998360;28;20218;-87
2021/12/23 04:45:52;;;;;;;54.33;35.50;;;;;;;;;;4998047;28;20212;-87
2021/12/23 04:48:20;;;;;;;51.57;32.37;;;;;;;;;;4997674;28;20206;-87
2021/12/23 04:50:49;;;;;;;43.87;27.00;;;;;;;;;;4997642;28;20214;-87
2021/12/23 04:53:17;;;;;;;52.07;40.37;;;;;;;;;;4997806;28;20206;-87
2021/12/23 04:55:47;;;;;;;48.77;31.90;;;;;;;;;;4997088;28;20212;-87
2021/12/23 04:58:16;;;;;;;37.57;25.23;;;;;;;;;;4998508;28;20253;-87
2021/12/23 05:00:47;;;;;;;53.27;32.07;;;;;;;;;;4997651;28;20241;-87
2021/12/23 05:03:16;;;;;;;61.03;38.97;;;;;;;;;;4997337;28;20311;-87
2021/12/23 05:05:45;;;;;;;56.27;39.87;;;;;;;;;;4997767;28;20205;-87
2021/12/23 05:08:14;;;;;;;49.13;33.43;;;;;;;;;;4997087;28;20271;-87
2021/12/23 05:10:42;;;;;;;60.27;46.03;;;;;;;;;;4997397;28;20212;-87
2021/12/23 05:13:12;;;;;;;58.93;42.83;;;;;;;;;;4997031;28;20214;-87
2021/12/23 05:15:42;;;;;;;61.80;41.90;;;;;;;;;;4997026;28;20205;-88
2021/12/23 05:18:10;;;;;;;19.03;9.53;;;;;;;;;;4997351;28;20222;-88
2021/12/23 05:20:39;;;;;;;64.37;39.57;;;;;;;;;;4997738;28;20213;-87
2021/12/23 05:23:10;;;;;;;54.73;39.30;;;;;;;;;;4997089;28;20205;-87
2021/12/23 05:25:38;;;;;;;56.63;32.90;;;;;;;;;;4997108;28;20244;-87
2021/12/23 05:28:07;;;;;;;74.17;46.33;;;;;;;;;;4997025;28;20238;-87
2021/12/23 05:30:37;;;;;;;67.07;45.77;;;;;;;;;;4997102;28;20209;-88
2021/12/23 05:33:05;;;;;;;71.30;45.27;;;;;;;;;;4997038;28;20229;-87
2021/12/23 05:35:34;;;;;;;65.27;42.03;;;;;;;;;;4997069;28;20197;-87
2021/12/23 05:38:02;;;;;;;75.97;45.37;;;;;;;;;;4996840;28;20240;-87
2021/12/23 05:40:32;;;;;;;72.73;49.60;;;;;;;;;;4996878;28;20207;-87
2021/12/23 05:43:00;;;;;;;76.20;49.03;;;;;;;;;;4996779;28;20208;-88
2021/12/23 05:45:29;;;;;;;42.77;21.83;;;;;;;;;;4997258;28;20293;-87
2021/12/23 05:47:59;;;;;;;81.07;50.83;;;;;;;;;;4996468;28;20238;-88
2021/12/23 05:50:28;;;;;;;54.13;35.63;;;;;;;;;;4996805;28;20209;-85
2021/12/23 05:52:56;;;;;;;80.13;49.37;;;;;;;;;;4996254;28;20212;-87
2021/12/23 05:55:25;;;;;;;80.73;52.03;;;;;;;;;;4996481;28;20265;-88
2021/12/23 05:57:53;;;;;;;80.70;52.17;;;;;;;;;;4996403;28;20301;-88
2021/12/23 06:00:23;;;;;;;75.53;42.13;;;;;;;;;;4996527;28;20203;-87
2021/12/23 06:02:51;;;;;;;73.93;49.97;;;;;;;;;;4996340;28;20237;-87
2021/12/23 06:05:22;;;;;;;82.47;49.93;;;;;;;;;;4996049;28;20229;-87
2021/12/23 06:07:51;;;;;;;82.63;56.63;;;;;;;;;;4995227;28;20245;-87
2021/12/23 06:10:19;;;;;;;94.20;60.67;;;;;;;;;;4996418;28;20214;-88
2021/12/23 06:12:48;;;;;;;84.27;54.13;;;;;;;;;;4996456;28;20565;-87
2021/12/23 06:15:16;;;;;;;90.07;55.13;;;;;;;;;;4996544;28;20232;-87
2021/12/23 06:17:47;;;;;;;88.83;54.63;;;;;;;;;;4995959;28;20236;-87
2021/12/23 06:20:16;;;;;;;80.90;46.23;;;;;;;;;;4996287;28;20296;-87
2021/12/23 06:22:49;;;;;;;69.97;40.37;;;;;;;;;;4995668;28;20196;-87
2021/12/23 06:25:18;;;;;;;79.13;49.70;;;;;;;;;;4995825;28;20249;-88
2021/12/23 06:27:46;;;;;;;74.10;42.70;;;;;;;;;;4993547;28;20255;-88
2021/12/23 06:30:19;;;;;;;71.00;40.93;;;;;;;;;;4976428;28;20205;-87
2021/12/23 06:32:48;;;;;;;68.33;40.40;;;;;;;;;;4976243;28;20189;-88
2021/12/23 06:35:17;;;;;;;75.30;42.53;;;;;;;;;;4977006;28;20211;-88
2021/12/23 06:37:47;;;;;;;82.73;56.97;;;;;;;;;;4975901;28;20210;-87
2021/12/23 06:40:16;;;;;;;89.10;56.70;;;;;;;;;;4976570;28;20212;-87
2021/12/23 06:42:45;;;;;;;89.57;56.13;;;;;;;;;;4975890;28;20263;-87
2021/12/23 06:45:15;;;;;;;51.10;33.50;;;;;;;;;;4976106;28;20292;-87
2021/12/23 06:47:44;;;;;;;87.50;62.10;;;;;;;;;;4975648;28;20205;-87
2021/12/23 06:50:17;;;;;;;73.43;40.87;;;;;;;;;;4975758;28;20293;-87
2021/12/23 06:52:46;;;;;;;93.63;60.27;;;;;;;;;;4975709;28;20257;-86
2021/12/23 06:55:16;;;;;;;95.60;61.33;;;;;;;;;;4975501;28;20261;-87
2021/12/23 06:57:52;;;;;;;67.23;38.10;;;;;;;;;;4975618;28;20591;-87
2021/12/23 07:00:21;;;;;;;96.00;54.97;;;;;;;;;;4975667;28;20205;-87
2021/12/23 07:02:50;;;;;;;91.23;58.20;;;;;;;;;;4975854;28;20226;-87
2021/12/23 07:05:19;;;;;;;100.40;56.50;;;;;;;;;;4975660;28;20225;-86
2021/12/23 07:07:58;;;;;;;101.77;62.40;;;;;;;;;;4982568;28;20257;-87
2021/12/23 07:10:28;;;;;;;109.27;70.03;;;;;;;;;;4994939;28;20264;-87
2021/12/23 07:12:59;;;;;;;96.20;64.47;;;;;;;;;;4995244;28;20212;-87
2021/12/23 07:15:28;;;;;;;86.30;52.33;;;;;;;;;;4995443;28;20186;-86
2021/12/23 07:17:57;;;;;;;97.93;66.33;;;;;;;;;;4994893;28;20267;-86
2021/12/23 07:20:26;;;;;;;81.53;49.30;;;;;;;;;;4994577;28;20229;-86
2021/12/23 07:22:55;;;;;;;86.60;47.03;;;;;;;;;;4994702;28;20216;-86
2021/12/23 07:25:24;;;;;;;95.50;56.87;;;;;;;;;;4994601;28;20225;-86
2021/12/23 07:27:54;;;;;;;82.47;47.43;;;;;;;;;;4991034;28;20207;-87
2021/12/23 07:30:24;;;;;;;82.60;50.60;;;;;;;;;;4974941;28;20214;-87
2021/12/23 07:32:54;;;;;;;76.20;43.50;;;;;;;;;;4975042;28;20271;-87
2021/12/23 07:35:22;;;;;;;80.40;45.20;;;;;;;;;;4975242;28;20261;-86
2021/12/23 07:37:51;;;;;;;92.07;57.20;;;;;;;;;;4975204;28;20274;-87
2021/12/23 07:40:19;;;;;;;93.97;57.80;;;;;;;;;;4975184;28;20210;-87
2021/12/23 07:42:53;;;;;;;95.90;57.23;;;;;;;;;;4975226;28;20261;-87
2021/12/23 07:45:25;;;;;;;93.17;53.53;;;;;;;;;;4974869;28;20225;-86
2021/12/23 07:47:55;;;;;;;82.70;48.67;;;;;;;;;;4974621;28;20213;-87
2021/12/23 07:50:26;;;;;;;64.80;33.67;;;;;;;;;;4974877;28;20233;-87
2021/12/23 07:52:54;;;;;;;97.20;61.60;;;;;;;;;;4975196;28;20234;-87
2021/12/23 07:55:23;;;;;;;64.33;30.50;;;;;;;;;;4975267;28;20237;-87
2021/12/23 07:57:51;;;;;;;98.17;66.30;;;;;;;;;;4974600;28;20218;-86
2021/12/23 08:00:20;;;;;;;94.17;49.77;;;;;;;;;;4974955;28;20270;-86
2021/12/23 08:02:51;;;;;;;89.10;54.30;;;;;;;;;;4975092;28;20284;-86
2021/12/23 08:05:22;;;;;;;86.50;46.30;;;;;;;;;;4975040;28;20242;-86
2021/12/23 08:07:50;;;;;;;89.30;52.57;;;;;;;;;;4981830;28;20236;-86
2021/12/23 08:10:20;;;;;;;69.73;38.47;;;;;;;;;;4994281;28;20206;-85
2021/12/23 08:12:49;;;;;;;76.73;41.83;;;;;;;;;;4994384;28;20196;-85
2021/12/23 08:15:18;;;;;;;58.33;31.37;;;;;;;;;;4994187;28;20207;-85
2021/12/23 08:17:46;;;;;;;89.97;53.80;;;;;;;;;;4994346;28;20205;-86
2021/12/23 08:20:19;;;;;;;79.23;50.93;;;;;;;;;;4994200;28;20237;-86
2021/12/23 08:22:47;;;;;;;85.37;50.30;;;;;;;;;;4994342;28;20209;-84
2021/12/23 08:25:16;;;;;;;85.57;45.03;;;;;;;;;;4994030;28;20244;-86
2021/12/23 08:27:47;;;;;;;11.67;10.57;;;;;;;;;;4991726;28;20233;-85
2021/12/23 08:30:17;;;;;;;79.60;49.13;;;;;;;;;;4976393;28;20214;-85
2021/12/23 08:32:47;;;;;;;72.90;41.67;;;;;;;;;;4977920;28;20214;-85
2021/12/23 08:35:17;;;;;;;81.13;38.60;;;;;;;;;;4978342;28;20249;-85
2021/12/23 08:37:46;;;;;;;79.93;41.47;;;;;;;;;;4977872;28;20229;-86
2021/12/23 08:40:16;;;;;;;71.53;36.97;;;;;;;;;;4978007;28;20207;-86
2021/12/23 08:42:44;;;;;;;62.17;35.17;;;;;;;;;;4977769;28;20214;-86
2021/12/23 08:45:13;;;;;;;67.00;32.57;;;;;;;;;;4962357;28;20273;-85
2021/12/23 08:47:41;;;;;;;84.80;44.97;;;;;;;;;;4958164;29;20214;-85
2021/12/23 08:50:11;;;;;;;88.30;46.23;;;;;;;;;;4958853;29;20272;-86
2021/12/23 08:52:41;;;;;;;74.83;41.70;;;;;;;;;;4958341;29;20261;-86
2021/12/23 08:55:10;;;;;;;81.83;52.50;;;;;;;;;;4958455;29;20207;-86
2021/12/23 08:57:40;;;;;;;79.53;43.87;;;;;;;;;;4958304;29;20249;-86
2021/12/23 09:00:12;;;;;;;68.53;37.73;;;;;;;;;;4959091;29;20290;-86
2021/12/23 09:02:41;;;;;;;57.23;30.13;;;;;;;;;;4958009;29;20210;-85
2021/12/23 09:05:10;;;;;;;73.10;40.07;;;;;;;;;;4958412;29;20216;-86
2021/12/23 09:07:38;;;;;;;77.50;46.83;;;;;;;;;;4961935;28;20242;-85
2021/12/23 09:10:09;;;;;;;68.83;40.30;;;;;;;;;;4977260;28;20269;-86
2021/12/23 09:12:38;;;;;;;78.73;45.43;;;;;;;;;;4977544;28;20202;-84
2021/12/23 09:15:07;;;;;;;63.67;39.07;;;;;;;;;;4991568;28;20268;-85
2021/12/23 09:17:37;;;;;;;73.77;46.23;;;;;;;;;;4996594;28;20206;-84
2021/12/23 09:20:07;;;;;;;48.97;27.77;;;;;;;;;;4996836;28;20235;-84
2021/12/23 09:22:36;;;;;;;59.97;28.20;;;;;;;;;;4996812;28;20290;-84
2021/12/23 09:25:10;;;;;;;74.23;46.40;;;;;;;;;;4996505;28;20241;-83
2021/12/23 09:28:07;;;;;;;76.87;46.03;;;;;;;;;;4996317;28;20224;-83
2021/12/23 09:33:22;;;;;;;67.83;39.80;;;;;;;;;;4996755;28;20205;-83
2021/12/23 09:35:53;;;;;;;69.83;40.40;;;;;;;;;;4996120;28;20241;-83
2021/12/23 09:38:27;;;;;;;72.73;43.17;;;;;;;;;;4996602;28;20217;-84
2021/12/23 09:41:00;;;;;;;72.87;39.50;;;;;;;;;;4996503;28;20193;-84
2021/12/23 09:43:31;;;;;;;75.87;47.67;;;;;;;;;;4995883;28;20191;-84
2021/12/23 09:46:00;;;;;;;67.03;40.30;;;;;;;;;;4996242;28;20226;-84
2021/12/23 09:48:30;;;;;;;63.87;35.27;;;;;;;;;;4995673;28;20268;-84
2021/12/23 09:51:00;;;;;;;68.80;39.40;;;;;;;;;;4996603;28;20201;-85
2021/12/23 09:53:28;;;;;;;70.77;39.17;;;;;;;;;;4996055;28;20201;-84
2021/12/23 09:55:58;;;;;;;53.33;32.30;;;;;;;;;;4996038;28;20241;-84
2021/12/23 09:58:30;;;;;;;73.00;41.57;;;;;;;;;;4996220;28;20295;-84
2021/12/23 10:00:59;;;;;;;76.80;46.07;;;;;;;;;;4996094;28;20260;-84
2021/12/23 10:03:29;;;;;;;78.80;43.10;;;;;;;;;;4995946;28;20221;-83
2021/12/23 10:05:59;;;;;;;63.60;34.77;;;;;;;;;;4996383;28;20266;-84
2021/12/23 10:08:28;;;;;;;65.50;37.23;;;;;;;;;;4995823;28;20312;-83
2021/12/23 10:11:00;;;;;;;63.80;36.53;;;;;;;;;;4995605;28;20202;-84
2021/12/23 10:30:28;;;;;;;71.70;39.93;;;;;;;;;;4977201;28;20292;-82
2021/12/23 10:33:16;;;;;;;61.70;39.37;;;;;;;;;;4975730;28;20298;-83
2021/12/23 10:38:34;;;;;;;73.07;47.07;;;;;;;;;;4976059;28;20217;-83
2021/12/23 10:41:05;;;;;;;60.83;34.13;;;;;;;;;;4975958;28;20214;-83
2021/12/23 10:43:35;;;;;;;60.07;33.73;;;;;;;;;;4975947;28;20207;-83
2021/12/23 10:46:06;;;;;;;68.03;39.27;;;;;;;;;;4975814;28;20211;-83
2021/12/23 10:48:44;;;;;;;50.80;28.23;;;;;;;;;;4975917;28;20294;-83
2021/12/23 10:51:17;;;;;;;56.77;29.37;;;;;;;;;;4975905;28;20212;-83
2021/12/23 10:53:54;;;;;;;65.30;36.97;;;;;;;;;;4975128;28;20217;-83
2021/12/23 10:59:12;;;;;;;46.77;29.37;;;;;;;;;;4975727;28;20232;-83
2021/12/23 11:01:55;;;;;;;65.63;40.60;;;;;;;;;;4975131;28;20199;-83
2021/12/23 11:04:25;;;;;;;18.60;11.90;;;;;;;;;;4971071;28;20251;-84
2021/12/23 11:07:10;;;;;;;57.30;31.50;;;;;;;;;;4968904;28;20267;-82
2021/12/23 11:09:58;;;;;;;29.27;18.80;;;;;;;;;;4966847;28;20303;-83
2021/12/23 11:35:44;;;;;;;59.60;34.27;;;;;;;;;;4965746;28;20229;-83
2021/12/23 11:35:50;;;;;;;60.23;38.60;;;;;;;;;;4966295;28;20645;-84
2021/12/23 11:38:29;;;;;;;51.83;29.83;;;;;;;;;;4966360;28;20206;-84
2021/12/23 11:41:01;;;;;;;13.57;8.93;;;;;;;;;;4972811;28;20217;-84
2021/12/23 11:43:48;;;;;;;57.40;30.17;;;;;;;;;;4973192;28;20223;-83
2021/12/23 11:46:19;;;;;;;40.03;22.77;;;;;;;;;;4971733;28;20210;-85
2021/12/23 11:48:52;;;;;;;49.53;32.03;;;;;;;;;;4973594;28;20260;-83
2021/12/23 11:51:28;;;;;;;46.77;27.93;;;;;;;;;;4966966;28;20275;-85
2021/12/23 11:53:59;;;;;;;50.70;30.63;;;;;;;;;;4971641;28;20214;-85
2021/12/23 11:56:27;;;;;;;51.57;32.27;;;;;;;;;;4972523;28;20220;-85
2021/12/23 11:58:58;;;;;;;54.33;31.83;;;;;;;;;;4974544;28;20211;-85
2021/12/23 12:01:28;;;;;;;40.20;22.27;;;;;;;;;;4967740;28;20207;-85
2021/12/23 12:04:01;;;;;;;54.73;34.03;;;;;;;;;;4969587;28;20233;-85
2021/12/23 12:06:31;;;;;;;48.87;29.37;;;;;;;;;;4973010;28;20217;-85
2021/12/23 12:09:14;;;;;;;54.13;33.30;;;;;;;;;;4989842;28;20298;-85
2021/12/23 12:11:48;;;;;;;52.13;35.03;;;;;;;;;;4994271;28;20234;-84
2021/12/23 12:14:35;;;;;;;45.77;24.90;;;;;;;;;;4993227;28;20212;-84
2021/12/23 12:17:22;;;;;;;54.97;34.73;;;;;;;;;;4996554;28;20204;-84
2021/12/23 12:19:54;;;;;;;57.50;36.30;;;;;;;;;;4988390;28;20215;-84
2021/12/23 12:22:43;;;;;;;49.10;26.90;;;;;;;;;;4995607;28;20212;-84
2021/12/23 12:25:13;;;;;;;28.30;16.73;;;;;;;;;;4992900;28;20212;-85
2021/12/23 12:27:43;;;;;;;25.03;17.07;;;;;;;;;;4994966;28;20283;-86
2021/12/23 12:30:14;;;;;;;58.07;37.30;;;;;;;;;;4995028;28;20270;-87
2021/12/23 12:32:43;;;;;;;33.37;18.17;;;;;;;;;;4997243;28;20204;-87
2021/12/23 12:35:12;;;;;;;52.27;32.20;;;;;;;;;;4995111;28;20279;-86
2021/12/23 12:37:42;;;;;;;53.70;30.03;;;;;;;;;;4993686;28;20239;-87
2021/12/23 12:40:11;;;;;;;51.27;31.87;;;;;;;;;;4991152;28;20208;-86
2021/12/23 12:42:45;;;;;;;54.87;39.07;;;;;;;;;;4996832;28;20262;-86
2021/12/23 12:45:25;;;;;;;56.83;35.30;;;;;;;;;;4995341;28;20215;-85
2021/12/23 12:47:59;;;;;;;24.47;13.70;;;;;;;;;;4996245;28;20250;-85
2021/12/23 12:50:29;;;;;;;27.00;15.50;;;;;;;;;;4982310;28;20208;-86
2021/12/23 12:53:05;;;;;;;29.83;18.50;;;;;;;;;;4991421;28;20215;-83
2021/12/23 12:55:39;;;;;;;45.13;27.13;;;;;;;;;;4993698;28;20204;-84
2021/12/23 12:58:09;;;;;;;21.30;13.33;;;;;;;;;;4991470;28;20207;-83
2021/12/23 13:00:42;;;;;;;7.20;6.37;;;;;;;;;;4990486;28;20220;-83
2021/12/23 13:03:14;;;;;;;14.60;8.57;;;;;;;;;;4993359;28;20244;-83
2021/12/23 13:05:44;;;;;;;38.37;18.00;;;;;;;;;;4996691;28;20197;-87
2021/12/23 13:08:19;;;;;;;22.80;15.37;;;;;;;;;;4993031;28;20246;-88
2021/12/23 13:10:59;;;;;;;38.77;21.67;;;;;;;;;;4996139;28;20199;-87
2021/12/23 13:13:35;;;;;;;31.57;19.53;;;;;;;;;;4996635;28;20219;-87
2021/12/23 13:16:12;;;;;;;41.60;27.70;;;;;;;;;;4991909;28;20255;-86
2021/12/23 13:18:40;;;;;;;38.83;23.67;;;;;;;;;;4995987;28;20196;-87
2021/12/23 13:21:09;;;;;;;27.27;15.60;;;;;;;;;;4995795;28;20283;-87
2021/12/23 13:23:40;;;;;;;30.30;14.63;;;;;;;;;;4992788;28;20208;-86
2021/12/23 13:26:10;;;;;;;29.27;16.67;;;;;;;;;;4988532;28;20238;-87
2021/12/23 13:28:42;;;;;;;32.00;19.77;;;;;;;;;;4993160;28;20231;-86
2021/12/23 13:31:15;;;;;;;12.90;9.07;;;;;;;;;;4995904;28;20290;-86
2021/12/23 13:33:45;;;;;;;24.40;15.77;;;;;;;;;;4996346;28;20204;-86
2021/12/23 13:36:15;;;;;;;39.87;21.50;;;;;;;;;;4979820;28;20212;-86
2021/12/23 13:38:45;;;;;;;34.63;22.93;;;;;;;;;;4995260;28;20204;-86
2021/12/23 13:41:15;;;;;;;22.67;11.83;;;;;;;;;;4991994;28;20236;-86
2021/12/23 13:43:45;;;;;;;20.17;13.77;;;;;;;;;;4992988;28;20259;-85
2021/12/23 13:46:14;;;;;;;21.77;15.03;;;;;;;;;;4993904;28;20239;-86
2021/12/23 13:49:00;;;;;;;40.60;18.10;;;;;;;;;;4995835;28;20223;-86
2021/12/23 13:51:31;;;;;;;9.20;8.23;;;;;;;;;;4993824;28;20200;-85
2021/12/23 13:54:07;;;;;;;17.10;11.03;;;;;;;;;;4995265;28;20197;-85
2021/12/23 13:56:39;;;;;;;8.70;7.93;;;;;;;;;;4995767;28;20222;-86
2021/12/23 13:59:13;;;;;;;36.23;18.93;;;;;;;;;;4995674;28;20207;-84
2021/12/23 14:02:08;;;;;;;24.33;14.80;;;;;;;;;;4995788;28;20204;-85
2021/12/23 14:04:44;;;;;;;31.97;20.23;;;;;;;;;;4983275;28;20224;-84
2021/12/23 14:07:18;;;;;;;31.47;18.30;;;;;;;;;;4995335;28;20192;-86
2021/12/23 14:09:48;;;;;;;38.13;20.30;;;;;;;;;;4995054;28;20240;-86
2021/12/23 14:12:21;;;;;;;32.70;20.73;;;;;;;;;;4992513;28;20236;-86
2021/12/23 14:14:55;;;;;;;47.10;30.30;;;;;;;;;;4990153;28;20239;-86
2021/12/23 14:17:28;;;;;;;54.50;29.27;;;;;;;;;;4987852;28;20238;-88
2021/12/23 14:25:37;;;;;;;20.20;13.87;;;;;;;;;;4991731;28;20213;-85
2021/12/23 14:28:06;;;;;;;26.03;14.77;;;;;;;;;;4994127;28;20212;-86
2021/12/23 14:30:37;;;;;;;28.50;18.10;;;;;;;;;;4994620;28;20303;-86
2021/12/23 14:33:10;;;;;;;23.67;17.10;;;;;;;;;;4989242;28;20205;-88
2021/12/23 14:35:38;;;;;;;36.83;19.00;;;;;;;;;;4990509;28;20239;-85
2021/12/23 14:38:07;;;;;;;46.67;31.87;;;;;;;;;;4992238;28;20222;-86
2021/12/23 14:40:36;;;;;;;28.07;18.00;;;;;;;;;;4986307;28;20209;-87
2021/12/23 14:43:04;;;;;;;42.43;22.30;;;;;;;;;;4991768;28;20208;-87
2021/12/23 14:45:37;;;;;;;34.10;17.80;;;;;;;;;;4995206;28;20193;-86
2021/12/23 14:48:12;;;;;;;42.50;27.10;;;;;;;;;;4995439;28;20243;-86
2021/12/23 14:50:51;;;;;;;26.80;17.57;;;;;;;;;;4995057;28;20215;-87
2021/12/23 14:53:21;;;;;;;43.37;22.23;;;;;;;;;;4995974;28;20193;-86
2021/12/23 14:56:00;;;;;;;36.37;20.83;;;;;;;;;;4995323;28;20231;-86
2021/12/23 14:58:32;;;;;;;51.97;29.07;;;;;;;;;;4995233;28;20287;-86
2021/12/23 15:01:19;;;;;;;36.30;19.47;;;;;;;;;;4995235;28;20208;-87
2021/12/23 15:03:49;;;;;;;42.63;24.20;;;;;;;;;;4995040;28;20232;-86
2021/12/23 15:06:18;;;;;;;22.90;8.90;;;;;;;;;;4995584;28;20199;-87
2021/12/23 15:08:46;;;;;;;20.77;12.13;;;;;;;;;;4995201;28;20246;-87
2021/12/23 15:11:17;;;;;;;44.30;18.23;;;;;;;;;;4994812;28;20292;-86
2021/12/23 15:13:46;;;;;;;33.27;22.40;;;;;;;;;;4994993;28;20201;-87
2021/12/23 15:16:18;;;;;;;25.53;14.43;;;;;;;;;;4995037;28;20211;-86
2021/12/23 15:19:09;;;;;;;40.10;24.27;;;;;;;;;;4995217;28;20204;-86
2021/12/23 15:21:43;;;;;;;61.30;31.13;;;;;;;;;;4994621;28;20199;-86
2021/12/23 15:24:19;;;;;;;31.23;18.10;;;;;;;;;;4994821;28;20204;-85
2021/12/23 15:27:08;;;;;;;42.83;22.97;;;;;;;;;;4994804;28;20270;-86
2021/12/23 15:29:39;;;;;;;37.23;23.67;;;;;;;;;;4994596;28;20251;-86
2021/12/23 15:32:11;;;;;;;36.97;21.20;;;;;;;;;;4994518;28;20192;-85
2021/12/23 15:34:46;;;;;;;60.23;34.43;;;;;;;;;;4995829;28;20196;-87